createdAt,value
2018-06-23T00:03:07.345Z,101494.31
2018-06-23T00:08:00.390Z,101488.44
2018-06-23T00:12:53.482Z,101478.82
2018-06-23T00:17:46.481Z,101480.61
2018-06-23T00:22:39.436Z,101471.72
2018-06-23T00:27:32.557Z,101475.78
2018-06-23T00:32:25.557Z,101474.30
2018-06-23T00:37:18.640Z,101475.27
2018-06-23T00:42:11.703Z,101466.18
2018-06-23T00:47:04.758Z,101474.83
2018-06-23T00:51:57.720Z,101471.27
2018-06-23T00:56:50.807Z,101471.06
2018-06-23T01:01:43.786Z,101473.25
2018-06-23T01:06:36.805Z,101463.97
2018-06-23T01:11:29.782Z,101477.37
2018-06-23T01:16:22.761Z,101474.06
2018-06-23T01:21:15.825Z,101479.71
2018-06-23T01:26:08.814Z,101473.41
2018-06-23T01:31:01.863Z,101473.93
2018-06-23T01:35:54.771Z,101469.70
2018-06-23T01:40:47.851Z,101464.59
2018-06-23T01:45:40.959Z,101462.87
2018-06-23T01:50:34.008Z,101447.45
2018-06-23T01:55:26.963Z,101442.79
2018-06-23T02:00:19.937Z,101456.03
2018-06-23T02:05:12.983Z,101458.80
2018-06-23T02:10:05.987Z,101455.05
2018-06-23T02:15:04.660Z,101454.00
2018-06-23T02:20:03.401Z,101463.31
2018-06-23T02:25:01.985Z,101460.96
2018-06-23T02:30:00.454Z,101459.28
2018-06-23T02:35:03.897Z,101471.73
2018-06-23T02:39:57.007Z,101475.95
2018-06-23T02:44:50.011Z,101472.71
2018-06-23T02:49:42.997Z,101471.59
2018-06-23T02:54:35.968Z,101470.42
2018-06-23T02:59:28.899Z,101465.69
2018-06-23T03:04:21.892Z,101479.52
2018-06-23T03:09:14.902Z,101474.93
2018-06-23T03:14:08.017Z,101481.70
2018-06-23T03:19:01.010Z,101476.58
2018-06-23T03:23:54.028Z,101480.19
2018-06-23T03:28:47.019Z,101480.91
2018-06-23T03:33:39.972Z,101484.87
2018-06-23T03:38:33.081Z,101480.08
2018-06-23T03:43:26.131Z,101488.72
2018-06-23T03:48:19.153Z,101480.22
2018-06-23T03:53:12.113Z,101481.45
2018-06-23T03:58:05.451Z,101484.61
2018-06-23T04:02:58.483Z,101487.61
2018-06-23T04:07:51.498Z,101479.58
2018-06-23T04:12:44.477Z,101487.53
2018-06-23T04:17:37.592Z,101483.70
2018-06-23T04:22:30.512Z,101477.99
2018-06-23T04:27:23.546Z,101470.97
2018-06-23T04:32:16.821Z,101459.84
2018-06-23T04:37:09.899Z,101464.13
2018-06-23T04:42:03.170Z,101461.95
2018-06-23T04:46:56.084Z,101447.23
2018-06-23T04:51:49.062Z,101462.12
2018-06-23T04:56:42.037Z,101472.55
2018-06-23T05:01:35.103Z,101484.72
2018-06-23T05:06:28.220Z,101481.66
2018-06-23T05:11:21.320Z,101478.66
2018-06-23T05:16:14.316Z,101479.70
2018-06-23T05:21:07.360Z,101476.78
2018-06-23T05:26:00.393Z,101471.37
2018-06-23T05:30:53.522Z,101472.95
2018-06-23T05:35:46.622Z,101467.55
2018-06-23T05:40:39.616Z,101474.69
2018-06-23T05:45:32.604Z,101467.22
2018-06-23T05:50:25.700Z,101466.78
2018-06-23T05:55:18.660Z,101470.73
2018-06-23T06:00:11.658Z,101477.05
2018-06-23T06:05:05.318Z,101477.55
2018-06-23T06:09:58.340Z,101469.81
2018-06-23T06:14:51.474Z,101466.36
2018-06-23T06:19:44.519Z,101461.06
2018-06-23T06:24:37.523Z,101472.86
2018-06-23T06:29:30.582Z,101470.27
2018-06-23T06:34:23.607Z,101469.30
2018-06-23T06:39:16.685Z,101475.08
2018-06-23T06:44:09.666Z,101479.25
2018-06-23T06:49:02.625Z,101489.33
2018-06-23T06:53:55.801Z,101492.55
2018-06-23T06:58:48.921Z,101499.13
2018-06-23T07:03:41.928Z,101489.21
2018-06-23T07:08:34.927Z,101482.03
2018-06-23T07:13:27.895Z,101487.14
2018-06-23T07:18:21.063Z,101485.56
2018-06-23T07:23:14.023Z,101490.29
2018-06-23T07:28:07.275Z,101483.16
2018-06-23T07:33:00.495Z,101479.70
2018-06-23T07:37:53.378Z,101479.84
2018-06-23T07:42:46.804Z,101472.70
2018-06-23T07:47:39.795Z,101472.56
2018-06-23T07:52:32.738Z,101470.05
2018-06-23T07:57:25.740Z,101472.07
2018-06-23T08:02:18.899Z,101465.77
2018-06-23T08:07:12.045Z,101467.11
2018-06-23T08:12:05.070Z,101470.84
2018-06-23T08:16:58.169Z,101473.31
2018-06-23T08:21:51.225Z,101463.27
2018-06-23T08:26:44.533Z,101464.86
2018-06-23T08:31:37.697Z,101468.34
2018-06-23T08:36:30.761Z,101464.88
2018-06-23T08:41:23.846Z,101469.91
2018-06-23T08:46:17.029Z,101466.09
2018-06-23T08:51:10.195Z,101461.13
2018-06-23T08:56:03.347Z,101458.42
2018-06-23T09:00:56.629Z,101446.58
2018-06-23T09:05:49.727Z,101456.89
2018-06-23T09:10:42.705Z,101446.67
2018-06-23T09:15:35.851Z,101453.34
2018-06-23T09:20:28.946Z,101443.63
2018-06-23T09:25:23.195Z,101442.75
2018-06-23T09:30:16.204Z,101436.61
2018-06-23T09:35:09.226Z,101447.03
2018-06-23T09:40:02.353Z,101445.28
2018-06-23T09:44:55.320Z,101444.02
2018-06-23T09:49:48.332Z,101439.82
2018-06-23T09:54:41.468Z,101434.63
2018-06-23T09:59:34.728Z,101434.30
2018-06-23T10:04:27.859Z,101431.21
2018-06-23T10:09:21.120Z,101426.08
2018-06-23T10:14:16.404Z,101419.56
2018-06-23T10:19:09.665Z,101417.23
2018-06-23T10:24:02.640Z,101416.84
2018-06-23T10:28:55.693Z,101419.11
2018-06-23T10:33:48.970Z,101420.72
2018-06-23T10:38:42.301Z,101427.59
2018-06-23T10:43:35.414Z,101412.83
2018-06-23T10:48:28.631Z,101408.02
2018-06-23T10:53:21.650Z,101409.75
2018-06-23T10:58:14.850Z,101411.77
2018-06-23T11:03:08.997Z,101411.01
2018-06-23T11:08:02.366Z,101415.03
2018-06-23T11:12:55.569Z,101417.31
2018-06-23T11:17:48.840Z,101414.84
2018-06-23T11:22:42.135Z,101414.23
2018-06-23T11:32:59.963Z,101412.56
2018-06-23T11:37:53.492Z,101405.47
2018-06-23T11:42:46.647Z,101410.20
2018-06-23T11:47:39.764Z,101396.80
2018-06-23T11:52:32.828Z,101407.80
2018-06-23T11:57:25.802Z,101397.44
2018-06-23T12:02:18.781Z,101397.77
2018-06-23T12:07:11.798Z,101398.95
2018-06-23T12:12:04.885Z,101396.81
2018-06-23T12:16:57.922Z,101396.02
2018-06-23T12:21:50.955Z,101396.88
2018-06-23T12:26:43.881Z,101408.12
2018-06-23T12:31:37.013Z,101414.09
2018-06-23T12:36:30.118Z,101411.89
2018-06-23T12:41:23.239Z,101416.53
2018-06-23T12:46:16.181Z,101409.66
2018-06-23T12:51:09.174Z,101416.75
2018-06-23T12:56:02.199Z,101402.84
2018-06-23T13:00:55.229Z,101406.44
2018-06-23T13:05:48.270Z,101393.89
2018-06-23T13:10:41.464Z,101403.45
2018-06-23T13:15:34.398Z,101411.62
2018-06-23T13:20:27.389Z,101416.71
2018-06-23T13:25:20.577Z,101417.71
2018-06-23T13:30:13.914Z,101420.55
2018-06-23T13:35:07.045Z,101430.80
2018-06-23T13:40:00.109Z,101421.82
2018-06-23T13:44:53.059Z,101415.45
2018-06-23T13:49:46.039Z,101408.98
2018-06-23T13:54:39.114Z,101418.55
2018-06-23T13:59:32.217Z,101415.27
2018-06-23T14:04:25.282Z,101413.36
2018-06-23T14:09:18.365Z,101418.22
2018-06-23T14:14:11.745Z,101425.25
2018-06-23T14:19:05.076Z,101432.25
2018-06-23T14:23:58.084Z,101449.09
2018-06-23T14:28:51.047Z,101448.73
2018-06-23T14:33:44.187Z,101443.79
2018-06-23T14:38:37.745Z,101440.55
2018-06-23T14:43:30.748Z,101435.17
2018-06-23T14:48:23.711Z,101457.25
2018-06-23T14:53:16.740Z,101459.62
2018-06-23T14:58:09.855Z,101455.72
2018-06-23T15:03:03.002Z,101450.98
2018-06-23T15:08:11.844Z,101446.02
2018-06-23T15:13:15.041Z,101446.55
2018-06-23T15:18:08.066Z,101444.59
2018-06-23T15:23:01.231Z,101448.39
2018-06-23T15:27:54.248Z,101443.43
2018-06-23T15:32:47.360Z,101454.80
2018-06-23T15:37:40.541Z,101463.87
2018-06-23T15:42:33.465Z,101457.39
2018-06-23T15:47:26.436Z,101462.60
2018-06-23T15:52:21.581Z,101460.37
2018-06-23T15:57:14.638Z,101456.58
2018-06-23T16:02:07.619Z,101454.15
2018-06-23T16:07:00.756Z,101448.47
2018-06-23T16:11:53.728Z,101448.00
2018-06-23T16:16:47.306Z,101446.39
2018-06-23T16:21:40.315Z,101443.14
2018-06-23T16:26:33.359Z,101444.78
2018-06-23T16:31:26.252Z,101446.43
2018-06-23T16:36:19.286Z,101445.32
2018-06-23T16:41:12.295Z,101452.30
2018-06-23T16:46:05.251Z,101452.00
2018-06-23T16:50:58.352Z,101454.86
2018-06-23T16:55:51.343Z,101449.12
2018-06-23T17:00:44.443Z,101449.08
2018-06-23T17:05:37.490Z,101454.19
2018-06-23T17:10:30.408Z,101449.81
2018-06-23T17:15:23.361Z,101447.30
2018-06-23T17:20:16.489Z,101449.40
2018-06-23T17:25:09.511Z,101450.58
2018-06-23T17:30:02.576Z,101447.48
2018-06-23T17:34:55.672Z,101448.26
2018-06-23T17:39:48.836Z,101462.30
2018-06-23T17:44:41.811Z,101445.95
2018-06-23T17:49:34.865Z,101444.59
2018-06-23T17:54:27.812Z,101451.82
2018-06-23T17:59:20.916Z,101452.06
2018-06-23T18:04:14.174Z,101447.13
2018-06-23T18:09:09.004Z,101445.12
2018-06-23T18:14:02.154Z,101449.69
2018-06-23T18:18:55.351Z,101447.73
2018-06-23T18:23:48.356Z,101447.33
2018-06-23T18:28:41.522Z,101446.46
2018-06-23T18:33:34.559Z,101454.56
2018-06-23T18:38:27.612Z,101453.38
2018-06-23T18:43:20.696Z,101455.22
2018-06-23T18:48:14.004Z,101458.40
2018-06-23T18:53:07.187Z,101456.65
2018-06-23T18:58:00.350Z,101457.64
2018-06-23T19:02:53.464Z,101463.95
2018-06-23T19:07:46.585Z,101462.36
2018-06-23T19:12:39.848Z,101466.16
2018-06-23T19:17:33.226Z,101476.48
2018-06-23T19:22:26.284Z,101470.23
2018-06-23T19:27:19.702Z,101467.50
2018-06-23T19:32:12.883Z,101474.13
2018-06-23T19:37:06.115Z,101485.91
2018-06-23T19:41:59.160Z,101485.83
2018-06-23T19:46:52.279Z,101486.27
2018-06-23T19:51:45.373Z,101487.56
2018-06-23T19:56:38.436Z,101491.40
2018-06-23T20:01:31.552Z,101494.11
2018-06-23T20:06:24.781Z,101491.40
2018-06-23T20:11:17.807Z,101494.05
2018-06-23T20:16:10.785Z,101495.45
2018-06-23T20:21:03.821Z,101495.53
2018-06-23T20:25:56.968Z,101487.11
2018-06-23T20:30:49.996Z,101500.28
2018-06-23T20:35:43.290Z,101500.45
2018-06-23T20:40:36.795Z,101502.88
2018-06-23T20:45:30.329Z,101499.86
2018-06-23T20:50:24.066Z,101502.28
2018-06-23T20:55:17.084Z,101500.07
2018-06-23T21:00:10.436Z,101501.50
2018-06-23T21:05:03.761Z,101513.52
2018-06-23T21:09:56.952Z,101514.47
2018-06-23T21:14:50.445Z,101513.17
2018-06-23T21:19:44.081Z,101518.59
2018-06-23T21:24:37.820Z,101510.11
2018-06-23T21:29:30.746Z,101510.58
2018-06-23T21:34:23.790Z,101509.65
2018-06-23T21:39:16.885Z,101504.63
2018-06-23T21:44:11.252Z,101503.47
2018-06-23T21:49:04.609Z,101512.07
2018-06-23T21:53:57.556Z,101503.64
2018-06-23T21:58:50.470Z,101498.81
2018-06-23T22:03:43.700Z,101500.64
2018-06-23T22:08:36.724Z,101494.30
2018-06-23T22:13:29.799Z,101497.40
2018-06-23T22:18:23.667Z,101493.03
2018-06-23T22:23:16.667Z,101480.61
2018-06-23T22:28:09.779Z,101491.91
2018-06-23T22:33:02.887Z,101504.99
2018-06-23T22:37:56.337Z,101492.80
2018-06-23T22:42:49.406Z,101491.98
2018-06-23T22:47:42.443Z,101501.16
2018-06-23T22:52:35.596Z,101500.00
2018-06-23T22:57:28.624Z,101504.82
2018-06-23T23:02:21.651Z,101504.30
2018-06-23T23:07:14.682Z,101497.98
2018-06-23T23:12:07.660Z,101499.03
2018-06-23T23:17:00.690Z,101497.02
2018-06-23T23:21:53.825Z,101495.89
2018-06-23T23:26:46.772Z,101493.94
2018-06-23T23:31:40.020Z,101487.77
2018-06-23T23:36:32.970Z,101482.22
2018-06-23T23:41:25.972Z,101482.22
2018-06-23T23:46:19.059Z,101480.23
2018-06-23T23:51:12.169Z,101476.09
2018-06-23T23:56:05.130Z,101469.26
